• Join FlightAware (Why Join?)
  • Login
  • US Flag 
05:12PM EDT


 

Airport Tracker/Info


-or-


 

Live Flight TrackerFlight Track Log ✈ SWA580 ✈ 30-Apr-2013 ✈ KBNA - KSTL

Flight Track Log - Related Links

Times and Time Zones

All times are in EDT time to prevent confusion due to time zone crossing. See the SWA580 flight status page for this flight to view local times or setup timezone preferences in your user account.

Time Position Orientation Groundspeed Altitude Reporting Facility
EDT Latitude Longitude Course Direction KTS MPH feet Rate Location/Type
04:00PM 36.1000 -86.7333 270° West 212 244 2,700  Level Nashville TRACON
04:01PM 36.1167 -86.8167 284° West 292 336 4,100 1,620 Climbing Nashville TRACON
04:02PM 36.1500 -86.9000 296° West 281 323 6,000 2,880 Climbing Nashville TRACON
04:03PM 36.1861 -87.0011 294° West 311 358 10,200 3,480 Climbing Memphis Center
04:04PM 36.2308 -87.1150 296° West 317 365 13,300 3,180 Climbing Memphis Center
04:05PM 36.2692 -87.2269 293° West 349 402 16,600 3,300 Climbing Memphis Center
04:06PM 36.2933 -87.3572 283° West 372 428 20,000 3,120 Climbing Memphis Center
04:07PM 36.3150 -87.4878 282° West 393 452 22,900 1,500 Climbing Memphis Center
04:08PM 36.3636 -87.6097 296° West 393 452 23,000 1,140 Climbing Memphis Center
04:09PM 36.4183 -87.7317 299° West 399 459 25,200 2,460 Climbing Memphis Center
04:10PM 36.4708 -87.8514 299° West 399 459 28,000 1,380 Climbing Memphis Center
04:11PM 36.5211 -87.9581 300° West 399 459 28,000  Level Memphis Center
04:12PM 36.5733 -88.0781 298° West 393 452 28,000  Level Memphis Center
04:13PM 36.6319 -88.2056 300° West 387 445 28,000  Level Memphis Center
04:14PM 36.6839 -88.3206 299° West 387 445 28,000  Level Memphis Center
04:15PM 36.7400 -88.4486 299° West 394 453 28,000 -360 Level Memphis Center
04:16PM 36.7961 -88.5717 300° West 405 466 27,300 -960 Descending Memphis Center
04:17PM 36.8456 -88.6872 298° West 400 460 26,100 -1,140 Descending Memphis Center
04:18PM 36.8928 -88.8006 298° West 381 438 25,100 -1,020 Descending Memphis Center
04:19PM 36.9422 -88.9058 300° West 362 417 24,100 -600 Descending Memphis Center
04:20PM 36.9872 -89.0142 298° West 357 411 24,000 -60 Descending Memphis Center
04:21PM 37.0339 -89.1200 299° West 351 404 24,000  Level Memphis Center
04:23PM 37.1214 -89.3258 298° West 348 400 24,000  Level Kansas City Center
04:24PM 37.1678 -89.4325 299° West 350 403 24,000  Level Kansas City Center
04:25PM 37.2233 -89.5614 298° West 352 405 24,000  Level Kansas City Center
04:26PM 37.3119 -89.6197 332° Northwest 362 417 24,000  Level Kansas City Center
04:27PM 37.4033 -89.6694 337° Northwest 358 412 24,000  Level Kansas City Center
04:28PM 37.4950 -89.7186 337° Northwest 357 411 24,000  Level Kansas City Center
04:29PM 37.5814 -89.7678 336° Northwest 356 410 24,000  Level Kansas City Center
04:30PM 37.6783 -89.8189 337° Northwest 380 437 24,000  Level Kansas City Center
04:31PM 37.8000 -89.8867 336° Northwest 398 458 24,000 -780 Level Kansas City Center
04:32PM 37.9075 -89.9433 337° Northwest 396 456 22,400 -1,800 Descending Kansas City Center
04:33PM 38.0031 -89.9972 336° Northwest 380 437 20,300 -2,100 Descending Kansas City Center
04:34PM 38.1031 -90.0539 336° Northwest 368 423 18,100 -2,100 Descending Kansas City Center
04:35PM 38.1925 -90.1050 336° Northwest 355 409 16,000 -1,920 Descending Kansas City Center
04:36PM 38.2806 -90.1533 337° Northwest 345 397 14,100 -1,920 Descending Kansas City Center
04:37PM 38.3736 -90.2053 336° Northwest 340 391 12,000 -1,800 Descending Kansas City Center
04:38PM 38.4536 -90.2514 336° Northwest 335 386 10,400 -1,260 Descending Kansas City Center
04:39PM 38.5378 -90.2992 336° Northwest 332 382 9,500 -1,080 Descending Kansas City Center
04:40PM 38.6181 -90.3444 336° Northwest 322 371 8,200 -1,080 Descending Kansas City Center
04:41PM 38.6722 -90.4147 315° West 282 325 7,300 -1,020 Descending Kansas City Center
04:42PM 38.7125 -90.4958 302° West 265 305 6,100 -1,260 Descending Kansas City Center
04:43PM 38.7503 -90.5725 302° West 256 295 4,800 -1,080 Descending Kansas City Center
04:44PM 38.7922 -90.6419 308° West 258 297 3,900 -840 Descending Kansas City Center
04:45PM 38.8456 -90.5825 41° Northeast 244 281 3,100 -540 Descending Kansas City Center
04:47PM 38.8206 -90.5144 115° Southeast 229 264 2,800 -660 Descending Kansas City Center
04:48PM 38.7900 -90.4531 123° Southeast 214 246 1,800 -840 Descending Kansas City Center
04:49PM 38.7692 -90.4092 121° Southeast 173 199 1,100 -660 Descending Kansas City Center
04:50PM 38.7464 -90.3633 122° Southeast 152 175 500 -600 Descending Kansas City Center